createdAt,value
2023-02-13T00:01:15.041Z,102393.44
2023-02-13T00:03:43.303Z,102399.69
2023-02-13T00:06:12.845Z,102397.69
2023-02-13T00:08:40.946Z,102407.03
2023-02-13T00:11:09.117Z,102417.13
2023-02-13T00:13:37.305Z,102405.22
2023-02-13T00:16:06.854Z,102414.88
2023-02-13T00:18:37.233Z,102416.41
2023-02-13T00:21:07.228Z,102411.88
2023-02-13T00:23:37.827Z,102417.31
2023-02-13T00:26:09.089Z,102419.28
2023-02-13T00:28:37.583Z,102413.41
2023-02-13T00:31:07.484Z,102424.28
2023-02-13T00:33:37.327Z,102419.84
2023-02-13T00:36:08.066Z,102418.91
2023-02-13T00:38:38.012Z,102429.63
2023-02-13T00:41:06.736Z,102438.16
2023-02-13T00:43:35.375Z,102425.19
2023-02-13T00:46:03.658Z,102423.72
2023-02-13T00:48:35.087Z,102425.72
2023-02-13T00:51:04.052Z,102417.88
2023-02-13T00:53:32.549Z,102427.44
2023-02-13T00:56:02.473Z,102432.50
2023-02-13T00:58:30.767Z,102432.41
2023-02-13T01:00:59.267Z,102430.25
2023-02-13T01:03:28.143Z,102425.59
2023-02-13T01:05:58.289Z,102430.41
2023-02-13T01:08:28.456Z,102421.06
2023-02-13T01:10:57.478Z,102431.47
2023-02-13T01:13:27.823Z,102433.22
2023-02-13T01:15:56.009Z,102428.31
2023-02-13T01:18:24.472Z,102421.31
2023-02-13T01:21:01.149Z,102431.72
2023-02-13T01:23:32.575Z,102426.97
2023-02-13T01:26:01.330Z,102431.25
2023-02-13T01:28:30.836Z,102425.81
2023-02-13T01:31:00.200Z,102413.66
2023-02-13T01:33:30.541Z,102415.81
2023-02-13T01:36:00.373Z,102430.56
2023-02-13T01:38:28.544Z,102429.72
2023-02-13T01:40:56.913Z,102425.75
2023-02-13T01:43:26.099Z,102421.91
2023-02-13T01:45:58.797Z,102421.28
2023-02-13T01:48:30.395Z,102430.31
2023-02-13T01:51:04.128Z,102425.22
2023-02-13T01:53:37.179Z,102434.44
2023-02-13T01:56:12.056Z,102425.41
2023-02-13T01:58:43.875Z,102438.59
2023-02-13T02:01:13.622Z,102433.31
2023-02-13T02:03:46.734Z,102425.97
2023-02-13T02:06:21.710Z,102425.16
2023-02-13T02:08:51.160Z,102428.66
2023-02-13T02:11:27.102Z,102431.47
2023-02-13T02:13:56.151Z,102428.72
2023-02-13T02:16:27.432Z,102428.38
2023-02-13T02:18:56.510Z,102439.06
2023-02-13T02:22:00.734Z,102445.97
2023-02-13T02:25:01.388Z,102443.00
2023-02-13T02:28:07.417Z,102450.72
2023-02-13T02:30:59.244Z,102450.53
2023-02-13T02:33:39.547Z,102457.63
2023-02-13T02:36:23.735Z,102446.97
2023-02-13T02:39:08.473Z,102441.81
2023-02-13T02:41:46.906Z,102450.88
2023-02-13T02:44:33.863Z,102456.00
2023-02-13T02:47:41.984Z,102460.59
2023-02-13T02:50:24.724Z,102464.84
2023-02-13T02:53:07.863Z,102461.56
2023-02-13T02:55:42.572Z,102459.94
2023-02-13T02:58:35.707Z,102463.53
2023-02-13T03:01:24.504Z,102459.75
2023-02-13T03:04:11.101Z,102466.47
2023-02-13T03:06:45.943Z,102470.25
2023-02-13T03:09:34.653Z,102470.44
2023-02-13T03:12:21.298Z,102470.91
2023-02-13T03:14:50.108Z,102466.13
2023-02-13T03:17:37.815Z,102471.91
2023-02-13T03:20:53.606Z,102464.22
2023-02-13T03:23:33.856Z,102466.88
2023-02-13T03:26:18.278Z,102467.06
2023-02-13T03:29:11.253Z,102470.88
2023-02-13T03:31:50.847Z,102469.22
2023-02-13T03:34:23.423Z,102460.03
2023-02-13T03:37:18.146Z,102465.63
2023-02-13T03:39:57.954Z,102467.25
2023-02-13T03:42:33.724Z,102466.72
2023-02-13T03:45:25.052Z,102470.31
2023-02-13T03:47:57.982Z,102473.75
2023-02-13T03:50:27.276Z,102482.47
2023-02-13T03:53:00.666Z,102476.72
2023-02-13T03:55:55.319Z,102480.66
2023-02-13T03:58:43.978Z,102487.22
2023-02-13T04:01:16.818Z,102476.19
2023-02-13T04:03:53.143Z,102478.03
2023-02-13T04:06:23.394Z,102480.97
2023-02-13T04:08:52.733Z,102469.19
2023-02-13T04:11:29.558Z,102479.53
2023-02-13T04:14:00.268Z,102474.09
2023-02-13T04:16:33.494Z,102468.38
2023-02-13T04:19:03.010Z,102475.97
2023-02-13T04:21:35.696Z,102479.06
2023-02-13T04:24:03.791Z,102471.69
2023-02-13T04:26:37.674Z,102477.28
2023-02-13T04:29:06.151Z,102473.50
2023-02-13T04:31:34.664Z,102473.81
2023-02-13T04:34:02.895Z,102471.19
2023-02-13T04:36:31.466Z,102480.72
2023-02-13T04:38:59.640Z,102481.69
2023-02-13T04:41:27.789Z,102476.78
2023-02-13T04:43:57.403Z,102468.88
2023-02-13T04:46:25.730Z,102473.66
2023-02-13T04:48:53.901Z,102469.53
2023-02-13T04:51:22.506Z,102466.59
2023-02-13T04:53:50.644Z,102469.41
2023-02-13T04:56:19.979Z,102469.22
2023-02-13T04:58:48.255Z,102470.91
2023-02-13T05:01:19.379Z,102471.41
2023-02-13T05:03:47.619Z,102472.06
2023-02-13T05:06:15.791Z,102465.03
2023-02-13T05:08:44.316Z,102485.53
2023-02-13T05:11:12.654Z,102482.44
2023-02-13T05:13:40.735Z,102494.38
2023-02-13T05:16:09.062Z,102491.75
2023-02-13T05:18:38.723Z,102500.47
2023-02-13T05:21:26.784Z,102495.69
2023-02-13T05:23:54.958Z,102503.41
2023-02-13T05:26:23.083Z,102500.59
2023-02-13T05:29:08.533Z,102498.09
2023-02-13T05:31:36.839Z,102498.84
2023-02-13T05:34:06.817Z,102503.44
2023-02-13T05:36:34.897Z,102511.22
2023-02-13T05:39:04.401Z,102506.03
2023-02-13T05:41:32.477Z,102505.84
2023-02-13T05:44:00.626Z,102509.66
2023-02-13T05:46:28.950Z,102505.97
2023-02-13T05:48:57.234Z,102508.84
2023-02-13T05:51:26.997Z,102516.78
2023-02-13T05:53:55.083Z,102521.84
2023-02-13T05:56:23.362Z,102521.03
2023-02-13T05:58:53.592Z,102512.94
2023-02-13T06:01:22.209Z,102528.66
2023-02-13T06:03:50.424Z,102534.72
2023-02-13T06:06:19.039Z,102526.47
2023-02-13T06:08:48.617Z,102527.91
2023-02-13T06:11:16.779Z,102524.97
2023-02-13T06:13:44.944Z,102525.56
2023-02-13T06:16:13.852Z,102523.84
2023-02-13T06:18:42.486Z,102521.06
2023-02-13T06:21:10.818Z,102525.84
2023-02-13T06:23:39.529Z,102516.28
2023-02-13T06:26:10.492Z,102524.41
2023-02-13T06:28:38.970Z,102521.25
2023-02-13T06:31:07.289Z,102524.53
2023-02-13T06:33:35.611Z,102532.34
2023-02-13T06:36:03.764Z,102536.44
2023-02-13T06:38:32.278Z,102531.34
2023-02-13T06:41:03.060Z,102530.44
2023-02-13T06:43:32.686Z,102531.25
2023-02-13T06:46:00.999Z,102536.13
2023-02-13T06:48:29.075Z,102526.94
2023-02-13T06:50:57.581Z,102535.50
2023-02-13T06:53:25.997Z,102529.38
2023-02-13T06:55:54.438Z,102541.13
2023-02-13T06:58:23.619Z,102531.63
2023-02-13T07:00:54.294Z,102534.91
2023-02-13T07:03:22.645Z,102529.25
2023-02-13T07:05:52.149Z,102528.88
2023-02-13T07:08:20.801Z,102526.13
2023-02-13T07:10:49.209Z,102526.19
2023-02-13T07:13:17.314Z,102532.66
2023-02-13T07:15:45.934Z,102520.94
2023-02-13T07:18:15.560Z,102520.13
2023-02-13T07:20:43.695Z,102521.16
2023-02-13T07:23:12.089Z,102525.09
2023-02-13T07:25:40.272Z,102512.81
2023-02-13T07:28:08.409Z,102514.94
2023-02-13T07:30:36.715Z,102524.03
2023-02-13T07:33:06.661Z,102517.84
2023-02-13T07:35:37.784Z,102512.56
2023-02-13T07:38:06.563Z,102519.59
2023-02-13T07:40:34.694Z,102520.22
2023-02-13T07:43:03.180Z,102526.13
2023-02-13T07:45:32.157Z,102521.88
2023-02-13T07:48:00.965Z,102511.50
2023-02-13T07:50:29.575Z,102508.16
2023-02-13T07:53:00.581Z,102500.81
2023-02-13T07:55:28.907Z,102501.44
2023-02-13T07:57:57.376Z,102496.22
2023-02-13T08:00:25.582Z,102501.88
2023-02-13T08:02:53.874Z,102504.47
2023-02-13T08:05:22.014Z,102497.50
2023-02-13T08:07:50.154Z,102497.81
2023-02-13T08:10:37.676Z,102504.13
2023-02-13T08:13:06.790Z,102503.75
2023-02-13T08:15:34.937Z,102499.72
2023-02-13T08:18:03.263Z,102505.47
2023-02-13T08:20:31.442Z,102504.41
2023-02-13T08:23:04.472Z,102502.38
2023-02-13T08:25:34.451Z,102504.00
2023-02-13T08:28:03.181Z,102503.59
2023-02-13T08:30:31.379Z,102505.88
2023-02-13T08:32:59.552Z,102498.78
2023-02-13T08:35:29.867Z,102498.97
2023-02-13T08:37:58.302Z,102499.31
2023-02-13T08:40:26.899Z,102503.94
2023-02-13T08:43:01.225Z,102503.56
2023-02-13T08:45:29.991Z,102498.25
2023-02-13T08:47:59.341Z,102505.94
2023-02-13T08:50:28.730Z,102493.38
2023-02-13T08:52:56.915Z,102489.75
2023-02-13T08:55:25.000Z,102497.59
2023-02-13T08:57:53.110Z,102494.72
2023-02-13T09:00:23.257Z,102495.16
2023-02-13T09:02:51.425Z,102475.91
2023-02-13T09:05:20.939Z,102486.53
2023-02-13T09:07:49.110Z,102485.91
2023-02-13T09:10:17.334Z,102474.63
2023-02-13T09:12:46.509Z,102470.88
2023-02-13T09:15:14.550Z,102467.63
2023-02-13T09:17:44.036Z,102471.88
2023-02-13T09:20:14.084Z,102475.75
2023-02-13T09:22:42.296Z,102481.69
2023-02-13T09:25:11.010Z,102470.97
2023-02-13T09:27:39.436Z,102477.53
2023-02-13T09:30:09.191Z,102451.47
2023-02-13T09:32:37.672Z,102466.34
2023-02-13T09:35:07.682Z,102455.34
2023-02-13T09:37:35.833Z,102452.69
2023-02-13T09:40:04.347Z,102443.28
2023-02-13T09:42:38.476Z,102441.91
2023-02-13T09:45:09.460Z,102427.16
2023-02-13T09:47:40.929Z,102433.59
2023-02-13T09:50:15.880Z,102423.47
2023-02-13T09:52:46.930Z,102430.47
2023-02-13T09:55:17.882Z,102423.44
2023-02-13T09:57:50.421Z,102417.78
2023-02-13T10:00:24.023Z,102406.34
2023-02-13T10:03:17.560Z,102409.72
2023-02-13T10:05:57.960Z,102404.91
2023-02-13T10:08:37.478Z,102400.00
2023-02-13T10:11:18.602Z,102406.97
2023-02-13T10:13:58.437Z,102395.50
2023-02-13T10:16:30.410Z,102400.22
2023-02-13T10:19:06.793Z,102391.91
2023-02-13T10:21:42.844Z,102391.47
2023-02-13T10:24:15.565Z,102390.16
2023-02-13T10:26:47.485Z,102381.38
2023-02-13T10:29:41.028Z,102378.75
2023-02-13T10:32:14.308Z,102387.28
2023-02-13T10:34:46.259Z,102376.44
2023-02-13T10:37:18.176Z,102376.28
2023-02-13T10:39:48.976Z,102377.44
2023-02-13T10:42:24.061Z,102367.34
2023-02-13T10:45:01.855Z,102363.25
2023-02-13T10:47:47.983Z,102369.53
2023-02-13T10:50:27.795Z,102361.75
2023-02-13T10:53:13.112Z,102357.66
2023-02-13T10:56:05.912Z,102352.16
2023-02-13T10:58:48.507Z,102351.75
2023-02-13T11:01:23.547Z,102337.47
2023-02-13T11:04:05.096Z,102336.41
2023-02-13T11:06:35.936Z,102333.25
2023-02-13T11:09:08.609Z,102334.16
2023-02-13T11:11:38.451Z,102334.09
2023-02-13T11:14:12.221Z,102339.56
2023-02-13T11:16:44.317Z,102340.97
2023-02-13T11:19:25.612Z,102334.59
2023-02-13T11:22:00.555Z,102341.72
2023-02-13T11:24:31.650Z,102339.75
2023-02-13T11:27:02.801Z,102338.38
2023-02-13T11:29:32.912Z,102334.25
2023-02-13T11:32:12.754Z,102332.78
2023-02-13T11:34:41.088Z,102330.34
2023-02-13T11:37:18.681Z,102323.97
2023-02-13T11:39:51.451Z,102319.03
2023-02-13T11:42:26.098Z,102322.44
2023-02-13T11:44:56.979Z,102317.31
2023-02-13T11:47:34.430Z,102317.06
2023-02-13T11:50:02.748Z,102312.44
2023-02-13T11:52:34.103Z,102313.78
2023-02-13T11:55:05.754Z,102302.53
2023-02-13T11:57:35.808Z,102305.44
2023-02-13T12:00:31.123Z,102303.38
2023-02-13T12:02:59.447Z,102302.38
2023-02-13T12:05:29.418Z,102296.84
2023-02-13T12:08:01.668Z,102301.09
2023-02-13T12:10:33.653Z,102293.16
2023-02-13T12:13:13.822Z,102300.66
2023-02-13T12:15:42.854Z,102292.31
2023-02-13T12:18:21.023Z,102286.41
2023-02-13T12:20:59.079Z,102285.44
2023-02-13T12:23:40.561Z,102286.09
2023-02-13T12:26:25.141Z,102282.31
2023-02-13T12:29:34.246Z,102273.66
2023-02-13T12:32:12.198Z,102272.81
2023-02-13T12:35:09.270Z,102277.56
2023-02-13T12:38:01.977Z,102273.03
2023-02-13T12:40:48.283Z,102277.16
2023-02-13T12:43:57.627Z,102269.72
2023-02-13T12:46:33.893Z,102266.69
2023-02-13T12:49:14.828Z,102263.25
2023-02-13T12:51:51.776Z,102268.97
2023-02-13T12:54:34.531Z,102273.91
2023-02-13T12:57:31.029Z,102265.56
2023-02-13T13:00:16.993Z,102259.25
2023-02-13T13:02:57.482Z,102258.22
2023-02-13T13:05:32.957Z,102252.91
2023-02-13T13:08:22.768Z,102260.66
2023-02-13T13:11:05.441Z,102244.97
2023-02-13T13:13:47.190Z,102258.22
2023-02-13T13:16:21.526Z,102252.47
2023-02-13T13:19:03.993Z,102261.22
2023-02-13T13:21:40.896Z,102254.34
2023-02-13T13:24:27.475Z,102250.91
2023-02-13T13:26:57.779Z,102252.06
2023-02-13T13:29:30.904Z,102229.91
2023-02-13T13:32:03.178Z,102242.09
2023-02-13T13:34:35.841Z,102239.44
2023-02-13T13:37:10.668Z,102236.28
2023-02-13T13:39:50.245Z,102233.00
2023-02-13T13:42:22.409Z,102225.28
2023-02-13T13:45:19.091Z,102221.53
2023-02-13T13:47:59.911Z,102215.28
2023-02-13T13:50:32.824Z,102217.38
2023-02-13T13:53:11.885Z,102219.94
2023-02-13T13:56:02.826Z,102214.63
2023-02-13T13:58:36.763Z,102208.84
2023-02-13T14:01:26.389Z,102210.84
2023-02-13T14:03:56.246Z,102203.91
2023-02-13T14:06:27.819Z,102193.88
2023-02-13T14:09:02.418Z,102201.47
2023-02-13T14:11:37.437Z,102201.03
2023-02-13T14:14:45.514Z,102189.19
2023-02-13T14:17:17.404Z,102183.84
2023-02-13T14:19:51.228Z,102185.25
2023-02-13T14:22:37.860Z,102184.69
2023-02-13T14:25:07.869Z,102186.34
2023-02-13T14:27:39.098Z,102195.38
2023-02-13T14:30:28.032Z,102183.75
2023-02-13T14:32:56.897Z,102184.22
2023-02-13T14:35:27.688Z,102184.84
2023-02-13T14:37:59.376Z,102184.50
2023-02-13T14:40:47.331Z,102180.47
2023-02-13T14:43:30.910Z,102182.78
2023-02-13T14:46:08.162Z,102174.22
2023-02-13T14:48:44.936Z,102170.56
2023-02-13T14:51:28.769Z,102166.09
2023-02-13T14:54:04.947Z,102167.91
2023-02-13T14:56:33.909Z,102164.50
2023-02-13T14:59:12.525Z,102155.78
2023-02-13T15:01:51.201Z,102158.50
2023-02-13T15:04:27.344Z,102158.75
2023-02-13T15:06:57.041Z,102153.28
2023-02-13T15:09:34.026Z,102146.78
2023-02-13T15:12:02.466Z,102156.78
2023-02-13T15:14:35.185Z,102154.34
2023-02-13T15:17:07.931Z,102153.91
2023-02-13T15:19:39.171Z,102160.22
2023-02-13T15:22:08.499Z,102153.72
2023-02-13T15:24:47.296Z,102161.25
2023-02-13T15:27:21.194Z,102157.56
2023-02-13T15:29:57.349Z,102152.88
2023-02-13T15:32:41.810Z,102156.31
2023-02-13T15:35:24.402Z,102152.38
2023-02-13T15:37:52.552Z,102154.22
2023-02-13T15:40:31.127Z,102162.34
2023-02-13T15:43:00.812Z,102156.00
2023-02-13T15:45:30.784Z,102160.63
2023-02-13T15:47:59.189Z,102164.69
2023-02-13T15:50:32.384Z,102165.44
2023-02-13T15:53:03.110Z,102156.88
2023-02-13T15:55:36.621Z,102162.53
2023-02-13T15:58:05.400Z,102164.50
2023-02-13T16:00:36.561Z,102153.09
2023-02-13T16:03:07.427Z,102152.50
2023-02-13T16:05:41.403Z,102163.03
2023-02-13T16:08:31.370Z,102160.50
2023-02-13T16:11:35.168Z,102149.28
2023-02-13T16:14:09.353Z,102159.44
2023-02-13T16:16:46.380Z,102151.09
2023-02-13T16:19:29.857Z,102152.75
2023-02-13T16:22:01.398Z,102151.72
2023-02-13T16:24:30.565Z,102148.72
2023-02-13T16:26:58.891Z,102154.25
2023-02-13T16:29:28.856Z,102156.03
2023-02-13T16:32:07.208Z,102154.13
2023-02-13T16:34:35.421Z,102147.00
2023-02-13T16:37:03.561Z,102149.84
2023-02-13T16:39:34.209Z,102144.69
2023-02-13T16:42:02.728Z,102148.19
2023-02-13T16:44:33.475Z,102147.50
2023-02-13T16:47:02.758Z,102145.16
2023-02-13T16:49:33.674Z,102142.44
2023-02-13T16:52:12.439Z,102143.28
2023-02-13T16:54:50.104Z,102145.03
2023-02-13T16:57:26.239Z,102141.66
2023-02-13T17:00:08.952Z,102143.84
2023-02-13T17:02:38.252Z,102141.16
2023-02-13T17:05:22.571Z,102136.59
2023-02-13T17:07:53.177Z,102138.44
2023-02-13T17:10:24.527Z,102127.94
2023-02-13T17:12:53.225Z,102127.38
2023-02-13T17:15:24.485Z,102125.69
2023-02-13T17:17:53.732Z,102122.81
2023-02-13T17:20:23.641Z,102127.03
2023-02-13T17:22:53.638Z,102117.31
2023-02-13T17:25:24.086Z,102118.75
2023-02-13T17:27:54.757Z,102122.66
2023-02-13T17:30:26.265Z,102109.59
2023-02-13T17:32:59.711Z,102112.84
2023-02-13T17:35:27.946Z,102100.22
2023-02-13T17:37:56.156Z,102101.75
2023-02-13T17:40:28.600Z,102108.91
2023-02-13T17:42:58.099Z,102103.00
2023-02-13T17:45:29.987Z,102096.63
2023-02-13T17:47:58.850Z,102093.13
2023-02-13T17:50:27.677Z,102088.22
2023-02-13T17:52:56.551Z,102091.59
2023-02-13T17:55:26.966Z,102085.75
2023-02-13T17:57:57.708Z,102084.28
2023-02-13T18:00:29.651Z,102082.34
2023-02-13T18:02:59.437Z,102085.47
2023-02-13T18:05:28.910Z,102084.63
2023-02-13T18:07:57.211Z,102085.94
2023-02-13T18:10:27.660Z,102079.78
2023-02-13T18:12:58.433Z,102083.91
2023-02-13T18:15:29.877Z,102074.72
2023-02-13T18:17:59.021Z,102080.88
2023-02-13T18:20:27.240Z,102077.69
2023-02-13T18:22:55.465Z,102074.34
2023-02-13T18:25:23.764Z,102073.28
2023-02-13T18:27:52.091Z,102065.88
2023-02-13T18:30:21.564Z,102071.28
2023-02-13T18:32:55.005Z,102068.25
2023-02-13T18:35:24.363Z,102058.59
2023-02-13T18:37:52.704Z,102062.22
2023-02-13T18:40:21.019Z,102063.81
2023-02-13T18:42:51.147Z,102056.09
2023-02-13T18:45:19.464Z,102055.63
2023-02-13T18:47:47.635Z,102056.88
2023-02-13T18:50:17.300Z,102047.53
2023-02-13T18:52:46.767Z,102049.53
2023-02-13T18:55:14.851Z,102053.97
2023-02-13T18:57:45.543Z,102052.75
2023-02-13T19:00:16.646Z,102057.66
2023-02-13T19:02:44.815Z,102052.84
2023-02-13T19:05:13.245Z,102053.69
2023-02-13T19:07:42.779Z,102053.94
2023-02-13T19:10:11.578Z,102048.69
2023-02-13T19:12:39.915Z,102042.78
2023-02-13T19:15:08.851Z,102038.94
2023-02-13T19:17:38.538Z,102042.47
2023-02-13T19:20:08.411Z,102034.22
2023-02-13T19:22:36.833Z,102044.31
2023-02-13T19:25:07.069Z,102040.34
2023-02-13T19:27:37.848Z,102040.13
2023-02-13T19:30:09.777Z,102044.53
2023-02-13T19:32:37.927Z,102037.34
2023-02-13T19:35:06.798Z,102039.09
2023-02-13T19:37:43.420Z,102042.28
2023-02-13T19:40:15.104Z,102036.22
2023-02-13T19:42:43.287Z,102040.16
2023-02-13T19:45:12.216Z,102020.28
2023-02-13T19:47:40.482Z,102028.75
2023-02-13T19:50:09.977Z,102021.69
2023-02-13T19:52:38.175Z,102018.94
2023-02-13T19:55:06.744Z,102015.22
2023-02-13T19:57:36.398Z,102011.47
2023-02-13T20:00:05.094Z,102005.53
2023-02-13T20:02:33.177Z,101997.00
2023-02-13T20:05:01.402Z,101996.53
2023-02-13T20:07:29.592Z,102000.56
2023-02-13T20:09:57.756Z,101996.31
2023-02-13T20:12:25.912Z,101994.16
2023-02-13T20:14:57.066Z,102001.41
2023-02-13T20:17:25.482Z,101995.13
2023-02-13T20:19:54.458Z,101994.34
2023-02-13T20:22:22.799Z,101998.38
2023-02-13T20:24:51.089Z,101992.56
2023-02-13T20:27:19.297Z,101993.56
2023-02-13T20:29:47.614Z,101982.66
2023-02-13T20:32:17.285Z,101982.13
2023-02-13T20:34:58.990Z,101986.50
2023-02-13T20:37:28.687Z,101974.97
2023-02-13T20:39:56.812Z,101970.28
2023-02-13T20:42:24.970Z,101964.56
2023-02-13T20:44:54.903Z,101958.69
2023-02-13T20:47:24.434Z,101961.91
2023-02-13T20:49:52.683Z,101953.56
2023-02-13T20:52:25.157Z,101945.84
2023-02-13T20:54:54.630Z,101944.94
2023-02-13T20:57:23.702Z,101943.66
2023-02-13T20:59:51.886Z,101948.19
2023-02-13T21:02:21.027Z,101947.91
2023-02-13T21:04:50.656Z,101945.13
2023-02-13T21:07:18.805Z,101941.94
2023-02-13T21:09:46.916Z,101942.41
2023-02-13T21:12:15.197Z,101945.06
2023-02-13T21:14:43.381Z,101953.94
2023-02-13T21:17:11.511Z,101939.91
2023-02-13T21:19:40.470Z,101939.16
2023-02-13T21:22:12.915Z,101927.16
2023-02-13T21:24:42.387Z,101928.59
2023-02-13T21:27:11.930Z,101922.28
2023-02-13T21:29:40.157Z,101925.59
2023-02-13T21:32:08.370Z,101924.78
2023-02-13T21:34:36.585Z,101919.03
2023-02-13T21:37:04.797Z,101912.06
2023-02-13T21:39:34.499Z,101913.63
2023-02-13T21:42:04.605Z,101918.38
2023-02-13T21:44:33.584Z,101925.19
2023-02-13T21:47:01.810Z,101932.59
2023-02-13T21:49:30.002Z,101926.94
2023-02-13T21:51:58.184Z,101926.25
2023-02-13T21:54:26.436Z,101924.81
2023-02-13T21:56:55.935Z,101924.75
2023-02-13T21:59:24.171Z,101924.53
2023-02-13T22:01:52.722Z,101932.00
2023-02-13T22:04:21.330Z,101927.72
2023-02-13T22:06:51.273Z,101926.97
2023-02-13T22:09:21.209Z,101930.16
2023-02-13T22:11:51.697Z,101928.97
2023-02-13T22:14:22.490Z,101932.78
2023-02-13T22:16:52.657Z,101935.41
2023-02-13T22:19:21.468Z,101936.44
2023-02-13T22:21:49.711Z,101934.91
2023-02-13T22:24:17.861Z,101937.25
2023-02-13T22:26:46.585Z,101926.66
2023-02-13T22:29:16.501Z,101924.75
2023-02-13T22:31:46.206Z,101921.94
2023-02-13T22:34:14.834Z,101915.19
2023-02-13T22:36:43.648Z,101922.06
2023-02-13T22:39:14.244Z,101920.50
2023-02-13T22:41:45.920Z,101925.38
2023-02-13T22:44:14.119Z,101924.91
2023-02-13T22:46:42.409Z,101916.50
2023-02-13T22:49:12.281Z,101911.28
2023-02-13T22:51:40.465Z,101904.47
2023-02-13T22:54:08.738Z,101904.13
2023-02-13T22:56:36.838Z,101910.25
2023-02-13T22:59:05.111Z,101913.84
2023-02-13T23:01:33.299Z,101902.44
2023-02-13T23:04:01.434Z,101911.28
2023-02-13T23:06:31.024Z,101907.19
2023-02-13T23:08:59.191Z,101908.34
2023-02-13T23:11:46.641Z,101895.34
2023-02-13T23:14:15.225Z,101897.78
2023-02-13T23:17:01.837Z,101909.88
2023-02-13T23:19:30.265Z,101910.25
2023-02-13T23:22:00.341Z,101911.00
2023-02-13T23:24:28.579Z,101910.19
2023-02-13T23:26:56.784Z,101911.44
2023-02-13T23:29:25.247Z,101908.63
2023-02-13T23:31:53.520Z,101912.31
2023-02-13T23:34:22.009Z,101910.38
2023-02-13T23:36:50.117Z,101901.94
2023-02-13T23:39:20.064Z,101903.97
2023-02-13T23:41:48.119Z,101911.44
2023-02-13T23:44:17.284Z,101908.25
2023-02-13T23:46:45.507Z,101906.94
2023-02-13T23:49:13.739Z,101910.81
2023-02-13T23:51:41.942Z,101895.97
2023-02-13T23:54:10.011Z,101912.59
2023-02-13T23:56:39.549Z,101906.38
2023-02-13T23:59:07.960Z,101901.09
